Time,TemperatureF,DewpointF,PressureIn,WindDirection,WindDirectionDegrees,WindSpeedMPH,WindSpeedGustMPH,Humidity,HourlyPrecipIn,Conditions,Clouds,dailyrainin,SoftwareType,DateUTC
2013-11-25 00:01:00,20.3,13.0,30.58,South,174,1.0,2.0,73,0.00,,,0.00,weatherlink.com 1.10,2013-11-25 05:01:00,
2013-11-25 00:31:00,20.0,14.0,30.58,South,180,1.0,2.0,76,0.00,,,0.00,weatherlink.com 1.10,2013-11-25 05:31:00,
2013-11-25 00:46:00,19.6,14.0,30.57,SSE,155,3.0,4.0,77,0.00,,,0.00,weatherlink.com 1.10,2013-11-25 05:46:00,
2013-11-25 01:01:00,19.9,14.0,30.57,SSW,212,0.0,2.0,78,0.00,,,0.00,weatherlink.com 1.10,2013-11-25 06:01:00,
2013-11-25 01:16:00,19.8,14.0,30.57,South,179,2.0,3.0,78,0.00,,,0.00,weatherlink.com 1.10,2013-11-25 06:16:00,
2013-11-25 01:32:00,20.1,14.0,30.57,South,177,1.0,4.0,77,0.00,,,0.00,weatherlink.com 1.10,2013-11-25 06:32:00,
2013-11-25 01:47:00,20.4,14.0,30.57,South,181,3.0,4.0,75,0.00,,,0.00,weatherlink.com 1.10,2013-11-25 06:47:00,
2013-11-25 02:02:00,21.1,12.0,30.57,South,184,3.0,6.0,69,0.00,,,0.00,weatherlink.com 1.10,2013-11-25 07:02:00,
2013-11-25 02:17:00,22.4,12.0,30.57,South,173,4.0,7.0,65,0.00,,,0.00,weatherlink.com 1.10,2013-11-25 07:17:00,
2013-11-25 02:32:00,22.8,11.0,30.57,SSE,166,3.0,7.0,62,0.00,,,0.00,weatherlink.com 1.10,2013-11-25 07:32:00,
2013-11-25 02:47:00,23.5,11.0,30.57,SSE,158,3.0,9.0,59,0.00,,,0.00,weatherlink.com 1.10,2013-11-25 07:47:00,
2013-11-25 03:02:00,24.2,10.0,30.57,SSE,163,4.0,7.0,55,0.00,,,0.00,weatherlink.com 1.10,2013-11-25 08:02:00,
2013-11-25 03:17:00,23.9,10.0,30.57,SSE,167,4.0,8.0,55,0.00,,,0.00,weatherlink.com 1.10,2013-11-25 08:17:00,
2013-11-25 03:32:00,24.0,10.0,30.57,South,188,5.0,6.0,55,0.00,,,0.00,weatherlink.com 1.10,2013-11-25 08:32:00,
2013-11-25 03:47:00,24.1,10.0,30.57,South,184,3.0,4.0,56,0.00,,,0.00,weatherlink.com 1.10,2013-11-25 08:47:00,
2013-11-25 04:02:00,24.0,10.0,30.57,SSE,167,3.0,6.0,55,0.00,,,0.00,weatherlink.com 1.10,2013-11-25 09:02:00,
2013-11-25 04:17:00,24.1,10.0,30.57,South,177,3.0,5.0,55,0.00,,,0.00,weatherlink.com 1.10,2013-11-25 09:17:00,
2013-11-25 04:32:00,24.1,10.0,30.57,SSE,167,4.0,7.0,55,0.00,,,0.00,weatherlink.com 1.10,2013-11-25 09:32:00,
2013-11-25 04:47:00,24.2,10.0,30.57,South,170,4.0,6.0,55,0.00,,,0.00,weatherlink.com 1.10,2013-11-25 09:47:00,
2013-11-25 05:02:00,24.0,10.0,30.57,WSW,238,4.0,7.0,56,0.00,,,0.00,weatherlink.com 1.10,2013-11-25 10:02:00,
2013-11-25 05:17:00,23.9,10.0,30.57,SSE,158,5.0,7.0,56,0.00,,,0.00,weatherlink.com 1.10,2013-11-25 10:17:00,
2013-11-25 05:32:00,24.3,10.0,30.57,South,172,5.0,7.0,54,0.00,,,0.00,weatherlink.com 1.10,2013-11-25 10:32:00,
2013-11-25 05:47:00,24.3,9.0,30.57,SSW,195,3.0,7.0,52,0.00,,,0.00,weatherlink.com 1.10,2013-11-25 10:47:00,
2013-11-25 06:02:00,24.0,9.0,30.57,SSW,204,5.0,9.0,52,0.00,,,0.00,weatherlink.com 1.10,2013-11-25 11:02:00,
2013-11-25 06:17:00,23.8,9.0,30.57,South,173,4.0,7.0,53,0.00,,,0.00,weatherlink.com 1.10,2013-11-25 11:17:00,
2013-11-25 06:32:00,23.8,8.0,30.58,South,184,4.0,-999.0,52,-99.99,,,0.00,weatherlink.com 1.10,2013-11-25 11:32:00,
2013-11-25 06:47:00,23.7,8.0,30.57,South,172,4.0,7.0,52,0.00,,,0.00,weatherlink.com 1.10,2013-11-25 11:47:00,
2013-11-25 07:02:00,23.6,8.0,30.57,SW,225,4.0,8.0,51,0.00,,,0.00,weatherlink.com 1.10,2013-11-25 12:02:00,
2013-11-25 07:17:00,23.4,8.0,30.57,South,172,4.0,7.0,52,0.00,,,0.00,weatherlink.com 1.10,2013-11-25 12:17:00,
2013-11-25 07:32:00,23.5,8.0,30.57,SSE,148,3.0,7.0,51,0.00,,,0.00,weatherlink.com 1.10,2013-11-25 12:32:00,
2013-11-25 07:47:00,23.9,8.0,30.58,SSE,150,4.0,6.0,50,0.00,,,0.00,weatherlink.com 1.10,2013-11-25 12:47:00,
2013-11-25 08:02:00,24.7,8.0,30.58,South,171,3.0,6.0,49,0.00,,,0.00,weatherlink.com 1.10,2013-11-25 13:02:00,
2013-11-25 08:17:00,26.5,8.0,30.58,South,169,4.0,6.0,46,0.00,,,0.00,weatherlink.com 1.10,2013-11-25 13:17:00,
2013-11-25 08:32:00,26.8,8.0,30.59,SSE,153,7.0,11.0,45,0.00,,,0.00,weatherlink.com 1.10,2013-11-25 13:32:00,
2013-11-25 08:47:00,27.1,7.0,30.59,SSE,168,9.0,12.0,43,0.00,,,0.00,weatherlink.com 1.10,2013-11-25 13:47:00,
2013-11-25 09:02:00,27.5,7.0,30.58,SSE,162,6.0,12.0,42,0.00,,,0.00,weatherlink.com 1.10,2013-11-25 14:02:00,
2013-11-25 09:17:00,28.1,6.0,30.59,SSE,159,9.0,15.0,39,0.00,,,0.00,weatherlink.com 1.10,2013-11-25 14:17:00,
2013-11-25 09:32:00,28.5,6.0,30.59,SSW,203,6.0,16.0,39,0.00,,,0.00,weatherlink.com 1.10,2013-11-25 14:32:00,
2013-11-25 09:47:00,28.9,6.0,30.60,SSE,160,11.0,12.0,38,0.00,,,0.00,weatherlink.com 1.10,2013-11-25 14:47:00,
2013-11-25 10:02:00,29.3,6.0,30.58,SSE,149,6.0,12.0,38,0.00,,,0.00,weatherlink.com 1.10,2013-11-25 15:02:00,
2013-11-25 10:17:00,29.2,6.0,30.59,WNW,288,9.0,15.0,38,0.00,,,0.00,weatherlink.com 1.10,2013-11-25 15:17:00,
2013-11-25 10:32:00,29.5,7.0,30.57,WNW,290,5.0,11.0,38,0.00,,,0.00,weatherlink.com 1.10,2013-11-25 15:32:00,
2013-11-25 10:47:00,30.3,9.0,30.57,WNW,289,4.0,10.0,40,0.00,,,0.00,weatherlink.com 1.10,2013-11-25 15:47:00,
2013-11-25 11:02:00,30.6,8.0,30.57,SSE,166,7.0,11.0,38,0.00,,,0.00,weatherlink.com 1.10,2013-11-25 16:02:00,
2013-11-25 11:18:00,31.1,8.0,30.56,South,187,6.0,10.0,38,0.00,,,0.00,weatherlink.com 1.10,2013-11-25 16:18:00,
2013-11-25 11:33:00,31.5,9.0,30.54,WSW,245,7.0,10.0,39,0.00,,,0.00,weatherlink.com 1.10,2013-11-25 16:33:00,
2013-11-25 11:48:00,31.7,8.0,30.54,SSW,212,10.0,13.0,37,0.00,,,0.00,weatherlink.com 1.10,2013-11-25 16:48:00,
2013-11-25 12:03:00,32.2,8.0,30.52,South,170,10.0,13.0,37,0.00,,,0.00,weatherlink.com 1.10,2013-11-25 17:03:00,
2013-11-25 12:18:00,32.4,9.0,30.52,West,259,5.0,14.0,38,0.00,,,0.00,weatherlink.com 1.10,2013-11-25 17:18:00,
2013-11-25 12:33:00,33.0,9.0,30.50,SSW,210,3.0,15.0,37,0.00,,,0.00,weatherlink.com 1.10,2013-11-25 17:33:00,
2013-11-25 12:48:00,34.0,9.0,30.48,SSE,155,8.0,14.0,36,0.00,,,0.00,weatherlink.com 1.10,2013-11-25 17:48:00,
2013-11-25 13:03:00,35.3,10.0,30.48,SSW,203,3.0,12.0,35,0.00,,,0.00,weatherlink.com 1.10,2013-11-25 18:03:00,
2013-11-25 13:19:00,36.4,10.0,30.48,SE,140,7.0,14.0,33,0.00,,,0.00,weatherlink.com 1.10,2013-11-25 18:19:00,
2013-11-25 13:33:00,37.6,11.0,30.48,SE,139,3.0,8.0,33,0.00,,,0.00,weatherlink.com 1.10,2013-11-25 18:33:00,
2013-11-25 13:48:00,38.4,9.0,30.46,South,172,5.0,11.0,30,0.00,,,0.00,weatherlink.com 1.10,2013-11-25 18:48:00,
2013-11-25 14:03:00,39.7,10.0,30.45,ESE,103,4.0,8.0,29,0.00,,,0.00,weatherlink.com 1.10,2013-11-25 19:03:00,
2013-11-25 14:18:00,39.7,9.0,30.46,SSE,162,5.0,10.0,28,0.00,,,0.00,weatherlink.com 1.10,2013-11-25 19:18:00,
2013-11-25 14:33:00,39.6,12.0,30.45,SSW,194,8.0,10.0,32,0.00,,,0.00,weatherlink.com 1.10,2013-11-25 19:33:00,
2013-11-25 14:48:00,39.7,10.0,30.45,SE,139,9.0,10.0,29,0.00,,,0.00,weatherlink.com 1.10,2013-11-25 19:48:00,
2013-11-25 15:03:00,39.8,10.0,30.43,SSE,167,6.0,13.0,29,0.00,,,0.00,weatherlink.com 1.10,2013-11-25 20:03:00,
2013-11-25 15:18:00,39.9,9.0,30.44,South,172,9.0,11.0,28,0.00,,,0.00,weatherlink.com 1.10,2013-11-25 20:18:00,
2013-11-25 15:33:00,39.8,9.0,30.44,South,184,5.0,10.0,28,0.00,,,0.00,weatherlink.com 1.10,2013-11-25 20:33:00,
2013-11-25 15:48:00,39.7,11.0,30.45,South,181,6.0,9.0,31,0.00,,,0.00,weatherlink.com 1.10,2013-11-25 20:48:00,
2013-11-25 16:03:00,39.5,12.0,30.44,South,176,2.0,12.0,32,0.00,,,0.00,weatherlink.com 1.10,2013-11-25 21:03:00,
2013-11-25 16:18:00,39.1,11.0,30.45,WSW,243,4.0,7.0,32,0.00,,,0.00,weatherlink.com 1.10,2013-11-25 21:18:00,
2013-11-25 16:33:00,38.7,10.0,30.45,SE,129,3.0,9.0,30,0.00,,,0.00,weatherlink.com 1.10,2013-11-25 21:33:00,
2013-11-25 16:48:00,38.5,9.0,30.43,SW,236,9.0,9.0,30,0.00,,,0.00,weatherlink.com 1.10,2013-11-25 21:48:00,
2013-11-25 17:03:00,38.3,10.0,30.43,SSE,155,7.0,10.0,31,0.00,,,0.00,weatherlink.com 1.10,2013-11-25 22:03:00,
2013-11-25 17:18:00,37.9,10.0,30.43,SSE,158,6.0,11.0,32,0.00,,,0.00,weatherlink.com 1.10,2013-11-25 22:18:00,
2013-11-25 17:33:00,37.5,11.0,30.44,SSE,156,5.0,10.0,34,0.00,,,0.00,weatherlink.com 1.10,2013-11-25 22:33:00,
2013-11-25 17:48:00,37.2,12.0,30.43,SSE,156,4.0,7.0,35,0.00,,,0.00,weatherlink.com 1.10,2013-11-25 22:48:00,
2013-11-25 18:03:00,36.8,13.0,30.44,South,190,5.0,8.0,37,0.00,,,0.00,weatherlink.com 1.10,2013-11-25 23:03:00,
2013-11-25 18:18:00,36.3,13.0,30.45,South,188,5.0,10.0,39,0.00,,,0.00,weatherlink.com 1.10,2013-11-25 23:18:00,
2013-11-25 18:33:00,36.0,14.0,30.43,SSE,161,6.0,10.0,40,0.00,,,0.00,weatherlink.com 1.10,2013-11-25 23:33:00,
2013-11-25 18:48:00,36.0,14.0,30.44,South,190,4.0,13.0,40,0.00,,,0.00,weatherlink.com 1.10,2013-11-25 23:48:00,
2013-11-25 19:03:00,35.9,15.0,30.44,South,184,6.0,10.0,42,0.00,,,0.00,weatherlink.com 1.10,2013-11-26 00:03:00,
2013-11-25 19:18:00,35.7,15.0,30.44,SSW,197,5.0,10.0,43,0.00,,,0.00,weatherlink.com 1.10,2013-11-26 00:18:00,
2013-11-25 19:33:00,35.7,16.0,30.45,SE,145,9.0,10.0,44,0.00,,,0.00,weatherlink.com 1.10,2013-11-26 00:33:00,
2013-11-25 19:48:00,35.7,15.0,30.45,South,179,4.0,15.0,43,0.00,,,0.00,weatherlink.com 1.10,2013-11-26 00:48:00,
2013-11-25 20:03:00,35.5,15.0,30.43,South,169,7.0,15.0,43,0.00,,,0.00,weatherlink.com 1.10,2013-11-26 01:03:00,
2013-11-25 20:18:00,35.7,15.0,30.43,SSE,155,11.0,16.0,43,0.00,,,0.00,weatherlink.com 1.10,2013-11-26 01:18:00,
2013-11-25 20:34:00,35.7,15.0,30.43,NNW,328,7.0,13.0,43,0.00,,,0.00,weatherlink.com 1.10,2013-11-26 01:34:00,
2013-11-25 20:49:00,35.7,16.0,30.43,South,176,9.0,11.0,44,0.00,,,0.00,weatherlink.com 1.10,2013-11-26 01:49:00,
2013-11-25 21:04:00,35.7,16.0,30.43,South,174,6.0,10.0,45,0.00,,,0.00,weatherlink.com 1.10,2013-11-26 02:04:00,
2013-11-25 21:19:00,35.6,17.0,30.43,SSW,194,4.0,10.0,46,0.00,,,0.00,weatherlink.com 1.10,2013-11-26 02:19:00,
2013-11-25 21:34:00,35.6,18.0,30.43,South,184,6.0,9.0,48,0.00,,,0.00,weatherlink.com 1.10,2013-11-26 02:34:00,
2013-11-25 21:49:00,35.2,20.0,30.42,SSW,195,6.0,7.0,54,0.00,,,0.00,weatherlink.com 1.10,2013-11-26 02:49:00,
2013-11-25 22:04:00,33.7,23.0,30.42,South,174,8.0,11.0,66,0.00,,,0.00,weatherlink.com 1.10,2013-11-26 03:04:00,
2013-11-25 22:19:00,33.2,24.0,30.41,SSW,212,7.0,13.0,70,0.00,,,0.00,weatherlink.com 1.10,2013-11-26 03:19:00,
2013-11-25 22:34:00,33.2,25.0,30.39,SE,146,9.0,16.0,71,0.00,,,0.00,weatherlink.com 1.10,2013-11-26 03:34:00,
2013-11-25 22:49:00,33.1,26.0,30.37,South,169,7.0,17.0,75,0.00,,,0.00,weatherlink.com 1.10,2013-11-26 03:49:00,
2013-11-25 23:04:00,33.2,27.0,30.36,SSE,151,10.0,21.0,78,0.00,,,0.00,weatherlink.com 1.10,2013-11-26 04:04:00,
2013-11-25 23:19:00,33.3,27.0,30.36,South,184,15.0,17.0,78,0.00,,,0.00,weatherlink.com 1.10,2013-11-26 04:19:00,
2013-11-25 23:34:00,33.3,27.0,30.36,SW,225,7.0,14.0,78,0.00,,,0.00,weatherlink.com 1.10,2013-11-26 04:34:00,
2013-11-25 23:49:00,33.6,27.0,30.37,SSE,167,11.0,19.0,77,0.00,,,0.00,weatherlink.com 1.10,2013-11-26 04:49:00,